Time;durP1;ratioP1;P1;durP2;ratioP2;P2;SDS_P1;SDS_P2;PMS_P1;PMS_P2;Temp;Humidity;BMP_temperature;BMP_pressure;BME280_temperature;BME280_humidity;BME280_pressure;Samples;Min_cycle;Max_cycle;Signal;HPM_P1;HPM_P2
2021/06/25 00:00:09;;;;;;;9.13;6.20;;;19.40;99.90;;;;;;5119800;28;20459;-45
2021/06/25 00:02:39;;;;;;;7.50;5.43;;;19.30;99.90;;;;;;5119915;28;20944;-45
2021/06/25 00:05:07;;;;;;;7.53;6.07;;;19.30;99.90;;;;;;5119660;28;20458;-47
2021/06/25 00:07:36;;;;;;;8.30;5.30;;;19.20;99.90;;;;;;5119402;28;20449;-47
2021/06/25 00:10:03;;;;;;;7.90;6.37;;;19.20;99.90;;;;;;5118499;28;20452;-52
2021/06/25 00:12:30;;;;;;;7.40;6.30;;;19.20;99.90;;;;;;5098909;28;20462;-50
2021/06/25 00:14:57;;;;;;;6.53;5.93;;;19.20;99.90;;;;;;5098942;28;20473;-50
2021/06/25 00:17:23;;;;;;;7.73;6.60;;;19.20;99.90;;;;;;5099360;28;20442;-47
2021/06/25 00:19:51;;;;;;;6.43;5.83;;;19.10;99.90;;;;;;5099658;28;20446;-51
2021/06/25 00:22:18;;;;;;;8.57;7.70;;;19.10;99.90;;;;;;5099412;28;20461;-50
2021/06/25 00:24:45;;;;;;;6.87;6.17;;;19.00;99.90;;;;;;5099213;28;20437;-46
2021/06/25 00:27:11;;;;;;;11.27;7.77;;;19.00;99.90;;;;;;5099605;28;20828;-47
2021/06/25 00:29:38;;;;;;;8.00;7.10;;;19.00;99.90;;;;;;5099447;28;20511;-47
2021/06/25 00:32:05;;;;;;;8.97;6.93;;;19.00;99.90;;;;;;5099137;28;20479;-44
2021/06/25 00:34:32;;;;;;;7.07;6.47;;;19.00;99.90;;;;;;5099566;28;20488;-45
2021/06/25 00:37:03;;;;;;;7.43;6.70;;;19.00;99.90;;;;;;5099708;28;20437;-44
2021/06/25 00:39:31;;;;;;;8.90;7.27;;;19.00;99.90;;;;;;5099476;28;20434;-45
2021/06/25 00:41:58;;;;;;;9.23;7.10;;;19.10;99.90;;;;;;5098751;28;20454;-44
2021/06/25 00:44:25;;;;;;;8.33;7.10;;;19.10;99.90;;;;;;5098693;28;20522;-45
2021/06/25 00:46:51;;;;;;;10.67;7.73;;;19.10;99.90;;;;;;5097880;28;20449;-44
2021/06/25 00:49:21;;;;;;;11.50;8.30;;;19.00;99.90;;;;;;5098627;28;20931;-46
2021/06/25 00:51:48;;;;;;;7.90;7.20;;;19.00;99.90;;;;;;5095160;28;20446;-47
2021/06/25 00:54:16;;;;;;;8.30;7.23;;;19.10;99.90;;;;;;5097530;28;20473;-44
2021/06/25 00:56:43;;;;;;;7.43;6.70;;;19.10;99.90;;;;;;5096684;28;20929;-46
2021/06/25 00:59:10;;;;;;;7.90;7.10;;;19.10;99.90;;;;;;5097171;28;20824;-45
2021/06/25 01:01:37;;;;;;;9.47;6.90;;;19.10;99.90;;;;;;5097292;28;20433;-49
2021/06/25 01:04:03;;;;;;;9.50;7.00;;;19.10;99.90;;;;;;5097026;28;20426;-47
2021/06/25 01:06:30;;;;;;;8.60;6.50;;;19.10;99.90;;;;;;5096911;28;20511;-50
2021/06/25 01:08:57;;;;;;;8.57;7.77;;;19.10;99.90;;;;;;5096847;28;20441;-44
2021/06/25 01:11:29;;;;;;;8.43;6.20;;;19.10;99.90;;;;;;5096480;28;20475;-50
2021/06/25 01:13:57;;;;;;;9.07;6.27;;;19.00;99.90;;;;;;5097352;28;20477;-47
2021/06/25 01:16:24;;;;;;;8.47;7.23;;;19.00;99.90;;;;;;5098005;28;20457;-45
2021/06/25 01:18:50;;;;;;;7.63;6.80;;;19.00;99.90;;;;;;5097390;28;20454;-45
2021/06/25 01:21:19;;;;;;;8.37;6.90;;;19.00;99.90;;;;;;5114404;28;20829;-45
2021/06/25 01:23:46;;;;;;;9.83;6.10;;;19.00;99.90;;;;;;5118199;28;20448;-47
2021/06/25 01:26:12;;;;;;;7.10;6.50;;;19.00;99.90;;;;;;5118451;28;20441;-46
2021/06/25 01:28:39;;;;;;;7.00;6.40;;;18.90;99.90;;;;;;5118618;28;20525;-47
2021/06/25 01:31:07;;;;;;;7.83;5.73;;;19.00;99.90;;;;;;5118722;28;20448;-49
2021/06/25 01:33:34;;;;;;;6.10;5.50;;;19.00;99.90;;;;;;5118459;28;20541;-45
2021/06/25 01:36:01;;;;;;;8.40;7.60;;;19.00;99.90;;;;;;5118825;28;20459;-48
2021/06/25 01:38:32;;;;;;;7.53;6.27;;;18.90;99.90;;;;;;5118297;28;20452;-47
2021/06/25 01:41:00;;;;;;;8.17;6.90;;;19.00;99.90;;;;;;5117928;28;20432;-50
2021/06/25 01:43:27;;;;;;;8.63;6.60;;;19.00;99.90;;;;;;5117987;28;20559;-47
2021/06/25 01:45:55;;;;;;;8.67;6.77;;;18.90;99.90;;;;;;5118389;28;20525;-50
2021/06/25 01:48:21;;;;;;;8.10;6.80;;;18.80;99.90;;;;;;5100338;28;20476;-44
2021/06/25 01:50:50;;;;;;;11.30;7.10;;;18.90;99.90;;;;;;5077509;28;20442;-46
2021/06/25 01:53:18;;;;;;;12.23;7.40;;;18.80;99.90;;;;;;5077259;28;20512;-45
2021/06/25 01:55:49;;;;;;;7.83;6.87;;;18.80;99.90;;;;;;5077153;28;20535;-47
2021/06/25 01:58:18;;;;;;;9.43;7.00;;;18.80;99.90;;;;;;5077715;28;20462;-49
2021/06/25 02:00:50;;;;;;;7.37;6.67;;;18.80;99.90;;;;;;5077257;28;20545;-52
2021/06/25 02:03:17;;;;;;;9.70;6.97;;;18.80;99.90;;;;;;5077074;28;20426;-49
2021/06/25 02:05:44;;;;;;;10.53;6.97;;;18.80;99.90;;;;;;5080179;28;20787;-48
2021/06/25 02:08:10;;;;;;;9.00;7.27;;;18.80;99.90;;;;;;5080992;28;20465;-49
2021/06/25 02:10:37;;;;;;;7.03;6.13;;;18.80;99.90;;;;;;5121660;28;20470;-49
2021/06/25 02:13:05;;;;;;;7.47;6.77;;;18.80;99.90;;;;;;5121030;28;20467;-47
2021/06/25 02:15:32;;;;;;;9.23;8.33;;;18.80;99.90;;;;;;5120791;28;20956;-47
2021/06/25 02:17:59;;;;;;;9.80;7.83;;;18.90;99.90;;;;;;5120977;28;20440;-49
2021/06/25 02:20:25;;;;;;;7.23;6.53;;;18.90;99.90;;;;;;5141259;22;20477;-45
2021/06/25 02:22:52;;;;;;;7.90;7.10;;;18.90;99.90;;;;;;5121127;28;20451;-49
2021/06/25 02:25:19;;;;;;;8.97;7.93;;;18.90;99.90;;;;;;5120946;28;20460;-48
2021/06/25 02:27:45;;;;;;;8.57;7.77;;;18.90;99.90;;;;;;5120622;28;20445;-49
2021/06/25 02:30:17;;;;;;;9.27;8.37;;;18.90;99.90;;;;;;5120093;28;20437;-49
2021/06/25 02:32:44;;;;;;;12.90;7.77;;;18.90;99.90;;;;;;5120763;28;20544;-49
2021/06/25 02:35:16;;;;;;;9.33;7.90;;;18.90;99.90;;;;;;5120805;28;20549;-47
2021/06/25 02:37:46;;;;;;;8.50;7.70;;;18.90;99.90;;;;;;5120750;28;20440;-48
2021/06/25 02:40:15;;;;;;;15.60;8.37;;;18.90;99.90;;;;;;5120493;28;20917;-50
2021/06/25 02:42:42;;;;;;;10.53;9.47;;;18.90;99.90;;;;;;5121220;28;20448;-52
2021/06/25 02:45:10;;;;;;;9.57;8.53;;;18.90;99.90;;;;;;5120628;28;20532;-52
2021/06/25 02:47:40;;;;;;;10.40;8.33;;;18.80;99.90;;;;;;5119110;28;20493;-47
2021/06/25 02:50:09;;;;;;;12.23;9.63;;;18.80;99.90;;;;;;5119628;28;20580;-47
2021/06/25 02:52:37;;;;;;;9.60;8.20;;;18.70;99.90;;;;;;5119913;28;20436;-46
2021/06/25 02:55:05;;;;;;;11.50;8.23;;;18.70;99.90;;;;;;5120405;28;20503;-49
2021/06/25 02:57:31;;;;;;;9.07;8.20;;;18.70;99.90;;;;;;5114847;28;20446;-45
2021/06/25 02:59:58;;;;;;;11.73;8.53;;;18.70;99.90;;;;;;5100378;28;20539;-48
2021/06/25 03:02:25;;;;;;;10.50;8.03;;;18.70;99.90;;;;;;5100600;28;20812;-49
2021/06/25 03:04:53;;;;;;;11.20;8.30;;;18.80;99.90;;;;;;5099325;28;20449;-49
2021/06/25 03:07:20;;;;;;;10.80;8.47;;;18.80;99.90;;;;;;5100339;28;21023;-48
2021/06/25 03:09:46;;;;;;;14.07;8.87;;;18.70;99.90;;;;;;5100141;28;20445;-45
2021/06/25 03:12:16;;;;;;;10.63;9.53;;;18.70;99.90;;;;;;5099785;28;20899;-49
2021/06/25 03:14:43;;;;;;;11.67;9.40;;;18.70;99.90;;;;;;5099072;28;20511;-48
2021/06/25 03:17:10;;;;;;;17.10;10.87;;;18.70;99.90;;;;;;5099280;28;20553;-48
2021/06/25 03:19:37;;;;;;;10.53;9.43;;;18.70;99.90;;;;;;5099353;28;20441;-44
2021/06/25 03:22:05;;;;;;;11.10;9.90;;;18.70;99.90;;;;;;5098926;28;20538;-46
2021/06/25 03:24:32;;;;;;;16.43;10.00;;;18.80;99.90;;;;;;5099595;28;20454;-45
2021/06/25 03:27:03;;;;;;;12.87;10.10;;;18.70;99.90;;;;;;5098869;28;20449;-48
2021/06/25 03:29:29;;;;;;;14.23;10.40;;;18.80;99.90;;;;;;5098869;28;20445;-44
2021/06/25 03:31:56;;;;;;;11.10;9.57;;;18.80;99.90;;;;;;5099446;28;20441;-45
2021/06/25 03:34:25;;;;;;;13.03;11.57;;;18.80;99.90;;;;;;5099442;28;20485;-49
2021/06/25 03:36:52;;;;;;;11.60;10.40;;;18.90;99.90;;;;;;5098908;28;20463;-51
2021/06/25 03:39:20;;;;;;;16.27;10.80;;;18.90;99.90;;;;;;5099192;28;20825;-48
2021/06/25 03:41:47;;;;;;;13.13;11.77;;;18.90;99.90;;;;;;5098448;28;20442;-47
2021/06/25 03:44:13;;;;;;;12.13;10.93;;;18.90;99.90;;;;;;5098719;28;20902;-50
2021/06/25 03:46:40;;;;;;;13.27;11.13;;;18.90;99.90;;;;;;5098437;28;20836;-46
2021/06/25 03:49:07;;;;;;;12.23;10.63;;;18.90;99.90;;;;;;5098181;28;20444;-51
2021/06/25 03:51:34;;;;;;;13.00;10.90;;;18.90;99.90;;;;;;5098163;28;20777;-45
2021/06/25 03:54:02;;;;;;;14.30;12.00;;;18.90;99.90;;;;;;5098664;28;20514;-49
2021/06/25 03:56:30;;;;;;;16.10;12.03;;;18.90;99.90;;;;;;5098724;28;20860;-52
2021/06/25 03:58:57;;;;;;;13.97;11.50;;;18.80;99.90;;;;;;5098374;28;20453;-51
2021/06/25 04:01:24;;;;;;;14.23;11.60;;;18.80;99.90;;;;;;5098363;28;20445;-48
2021/06/25 04:03:51;;;;;;;14.97;12.00;;;18.80;99.90;;;;;;5098149;28;20444;-51
2021/06/25 04:06:18;;;;;;;13.70;11.50;;;18.90;99.90;;;;;;5098183;28;20805;-50
2021/06/25 04:08:47;;;;;;;14.60;12.20;;;18.90;99.90;;;;;;5098158;28;20445;-50
2021/06/25 04:11:14;;;;;;;17.03;12.50;;;18.90;99.90;;;;;;5098898;28;20499;-47
2021/06/25 04:13:42;;;;;;;16.50;12.50;;;18.90;99.90;;;;;;5098917;28;20438;-51
2021/06/25 04:16:08;;;;;;;14.97;13.47;;;19.00;99.90;;;;;;5098320;28;21008;-46
2021/06/25 04:18:35;;;;;;;13.60;12.03;;;19.00;99.90;;;;;;5097954;28;20817;-50
2021/06/25 04:21:02;;;;;;;13.67;12.23;;;19.10;99.90;;;;;;5097846;28;20503;-51
2021/06/25 04:23:29;;;;;;;18.30;12.97;;;19.10;99.90;;;;;;5098158;28;20461;-51
2021/06/25 04:25:56;;;;;;;15.73;14.03;;;19.00;99.90;;;;;;5097883;28;20434;-52
2021/06/25 04:28:23;;;;;;;15.00;13.40;;;19.00;99.90;;;;;;5096949;28;20463;-48
2021/06/25 04:30:51;;;;;;;15.47;12.57;;;19.10;99.90;;;;;;5098434;28;20552;-52
2021/06/25 04:33:19;;;;;;;14.83;13.10;;;19.10;99.90;;;;;;5098869;28;20455;-45
2021/06/25 04:35:49;;;;;;;19.70;13.47;;;19.10;99.90;;;;;;5098435;28;20492;-44
2021/06/25 04:38:16;;;;;;;18.23;12.80;;;19.10;99.90;;;;;;5099296;28;20902;-45
2021/06/25 04:40:44;;;;;;;18.97;14.50;;;19.10;99.90;;;;;;5099766;28;20471;-52
2021/06/25 04:43:15;;;;;;;21.37;14.53;;;19.10;99.90;;;;;;5098069;28;20518;-48
2021/06/25 04:45:43;;;;;;;15.07;13.57;;;19.20;99.90;;;;;;5098133;28;20422;-51
2021/06/25 04:48:13;;;;;;;15.90;12.00;;;19.20;99.90;;;;;;5098100;28;20906;-47
2021/06/25 04:50:40;;;;;;;14.70;12.40;;;19.30;99.90;;;;;;5097924;28;20487;-47
2021/06/25 04:53:10;;;;;;;18.20;14.20;;;19.30;99.90;;;;;;5097883;28;20442;-52
2021/06/25 04:55:42;;;;;;;15.13;13.60;;;19.30;99.90;;;;;;5097841;28;20477;-49
2021/06/25 04:58:10;;;;;;;16.50;12.50;;;19.30;99.90;;;;;;5097904;28;20482;-52
2021/06/25 05:00:37;;;;;;;18.63;12.70;;;19.30;99.90;;;;;;5097273;28;20855;-47
2021/06/25 05:03:04;;;;;;;14.63;13.03;;;19.30;99.90;;;;;;5098035;28;20449;-50
2021/06/25 05:05:32;;;;;;;13.97;12.57;;;19.30;99.90;;;;;;5097386;28;20506;-50
2021/06/25 05:07:59;;;;;;;15.97;13.10;;;19.30;99.90;;;;;;5097342;28;20445;-49
2021/06/25 05:10:28;;;;;;;14.60;13.20;;;19.40;99.90;;;;;;5097832;28;20449;-47
2021/06/25 05:12:54;;;;;;;15.30;11.20;;;19.40;99.90;;;;;;5097358;28;20503;-52
2021/06/25 05:15:21;;;;;;;13.10;11.50;;;19.40;99.90;;;;;;5096964;28;20852;-52
2021/06/25 05:17:49;;;;;;;16.07;13.80;;;19.50;99.90;;;;;;5097654;28;20449;-48
2021/06/25 05:20:17;;;;;;;13.40;10.67;;;19.60;99.90;;;;;;5096947;28;20449;-49
2021/06/25 05:22:45;;;;;;;12.00;10.70;;;19.60;99.90;;;;;;5096732;28;20926;-51
2021/06/25 05:25:13;;;;;;;13.73;11.40;;;19.70;99.90;;;;;;5096620;28;20437;-50
2021/06/25 05:27:40;;;;;;;12.50;10.63;;;19.80;99.90;;;;;;5096723;28;20449;-44
2021/06/25 05:30:09;;;;;;;12.33;10.37;;;19.80;99.90;;;;;;5097179;28;20437;-47
2021/06/25 05:32:36;;;;;;;13.70;9.90;;;19.90;99.90;;;;;;5097027;28;20460;-49
2021/06/25 05:35:04;;;;;;;12.07;10.67;;;20.00;99.90;;;;;;5096830;28;20516;-49
2021/06/25 05:37:30;;;;;;;10.77;9.23;;;20.00;99.90;;;;;;5097636;28;20445;-48
2021/06/25 05:39:58;;;;;;;10.47;9.50;;;20.00;99.90;;;;;;5099250;28;20456;-47
2021/06/25 05:42:26;;;;;;;11.73;10.27;;;20.10;99.90;;;;;;5099053;28;20956;-51
2021/06/25 05:44:52;;;;;;;10.90;9.57;;;20.20;99.90;;;;;;5099354;28;20433;-49
2021/06/25 05:47:19;;;;;;;11.87;10.07;;;20.20;99.90;;;;;;5099156;28;20532;-49
2021/06/25 05:49:46;;;;;;;11.60;9.30;;;20.30;99.90;;;;;;5098954;28;20449;-52
2021/06/25 05:52:12;;;;;;;12.00;9.90;;;20.30;99.90;;;;;;5101857;28;20890;-51
2021/06/25 05:54:39;;;;;;;10.40;7.97;;;20.30;99.90;;;;;;5100981;28;20445;-46
2021/06/25 05:57:09;;;;;;;9.30;8.30;;;20.30;99.90;;;;;;5102995;28;20506;-47
2021/06/25 05:59:35;;;;;;;13.67;8.30;;;20.40;99.90;;;;;;5101187;28;20442;-51
2021/06/25 06:02:02;;;;;;;8.80;7.50;;;20.50;99.90;;;;;;5113680;28;20474;-46
2021/06/25 06:04:29;;;;;;;10.43;9.17;;;20.60;99.90;;;;;;5119410;28;20440;-45
2021/06/25 06:06:55;;;;;;;9.97;8.03;;;20.70;99.90;;;;;;5119866;28;20768;-50
2021/06/25 06:09:22;;;;;;;10.57;8.00;;;20.90;99.90;;;;;;5119890;28;20475;-45
2021/06/25 06:11:49;;;;;;;9.40;7.83;;;20.90;99.90;;;;;;5121052;28;20444;-45
2021/06/25 06:14:17;;;;;;;12.23;7.90;;;21.10;99.90;;;;;;5118509;28;20533;-47
2021/06/25 06:16:43;;;;;;;16.63;9.73;;;21.20;99.90;;;;;;5118975;28;21087;-46
2021/06/25 06:19:10;;;;;;;13.70;8.80;;;21.30;99.90;;;;;;5118405;28;20440;-44
2021/06/25 06:32:44;;;;;;;11.43;8.13;;;21.50;99.90;;;;;;5112257;28;20482;-50
2021/06/25 06:35:11;;;;;;;12.80;9.57;;;21.50;99.90;;;;;;5113363;28;20452;-44
2021/06/25 06:37:37;;;;;;;8.80;6.47;;;21.40;99.90;;;;;;5119198;28;20448;-47
2021/06/25 06:40:04;;;;;;;8.30;6.97;;;21.30;99.90;;;;;;5118649;28;20444;-46
2021/06/25 06:42:31;;;;;;;11.50;7.73;;;21.40;99.90;;;;;;5118710;28;20455;-44
2021/06/25 06:44:59;;;;;;;13.03;7.57;;;21.40;99.90;;;;;;5118584;28;21038;-44
2021/06/25 06:47:26;;;;;;;11.50;7.03;;;21.50;99.90;;;;;;5118970;28;20913;-49
2021/06/25 06:49:53;;;;;;;10.23;6.90;;;21.50;99.90;;;;;;5118039;28;20769;-44
2021/06/25 06:52:19;;;;;;;11.50;8.13;;;21.60;99.90;;;;;;5117632;28;20452;-50
2021/06/25 06:54:46;;;;;;;11.20;7.80;;;21.60;99.90;;;;;;5117130;28;20502;-50
2021/06/25 06:57:13;;;;;;;8.17;7.20;;;21.60;99.90;;;;;;5116900;28;20976;-51
2021/06/25 06:59:39;;;;;;;12.97;8.30;;;21.60;99.90;;;;;;5117134;28;20452;-49
2021/06/25 07:02:09;;;;;;;12.30;7.43;;;21.70;99.90;;;;;;5117087;28;20432;-46
2021/06/25 07:04:35;;;;;;;14.57;8.17;;;21.80;99.90;;;;;;5105408;28;20449;-49
2021/06/25 07:07:02;;;;;;;8.10;7.30;;;21.80;99.90;;;;;;5097935;28;20764;-49
2021/06/25 07:09:29;;;;;;;8.90;6.30;;;21.90;99.90;;;;;;5097462;28;20925;-46
2021/06/25 07:11:55;;;;;;;9.00;6.87;;;22.20;99.90;;;;;;5097329;28;20464;-46
2021/06/25 07:14:22;;;;;;;15.90;7.23;;;22.20;99.90;;;;;;5097336;28;20454;-48
2021/06/25 07:16:49;;;;;;;8.93;8.03;;;22.30;99.90;;;;;;5097629;28;20535;-47
2021/06/25 07:19:17;;;;;;;11.53;7.60;;;22.30;99.90;;;;;;5097714;28;20469;-45
2021/06/25 07:21:43;;;;;;;10.97;7.80;;;22.20;99.90;;;;;;5108706;28;20468;-43
2021/06/25 07:24:10;;;;;;;9.50;7.07;;;22.10;99.90;;;;;;5104182;28;20949;-43
2021/06/25 07:26:37;;;;;;;7.67;6.17;;;22.00;99.90;;;;;;5108547;28;20445;-45
2021/06/25 07:29:04;;;;;;;10.83;7.57;;;21.90;99.90;;;;;;5117615;28;20527;-50
2021/06/25 07:31:31;;;;;;;8.47;7.33;;;21.80;99.90;;;;;;5117178;28;20445;-46
2021/06/25 07:33:57;;;;;;;7.63;6.00;;;21.80;99.90;;;;;;5117725;28;20441;-46
2021/06/25 07:36:25;;;;;;;8.77;6.37;;;21.80;99.90;;;;;;5119838;28;20477;-45
2021/06/25 07:38:52;;;;;;;8.43;7.63;;;21.80;99.90;;;;;;5119094;28;20472;-50
2021/06/25 07:41:18;;;;;;;8.07;7.23;;;21.80;99.90;;;;;;5119343;28;21279;-50
2021/06/25 07:43:45;;;;;;;8.47;6.83;;;21.80;99.90;;;;;;5118933;28;20819;-44
2021/06/25 07:46:12;;;;;;;9.03;6.57;;;21.80;99.90;;;;;;5116865;28;20894;-44
2021/06/25 07:48:39;;;;;;;13.57;7.83;;;21.90;99.90;;;;;;5117096;28;20517;-44
2021/06/25 07:51:05;;;;;;;8.63;7.70;;;22.00;99.90;;;;;;5117514;28;20866;-46
2021/06/25 07:53:34;;;;;;;14.20;7.90;;;21.90;99.90;;;;;;5113135;28;20432;-45
2021/06/25 07:56:00;;;;;;;10.00;7.50;;;21.90;99.90;;;;;;5105553;28;20473;-50
2021/06/25 07:58:27;;;;;;;10.90;6.73;;;21.90;99.90;;;;;;5104095;28;20906;-48
2021/06/25 08:00:54;;;;;;;7.73;6.93;;;21.90;99.90;;;;;;5106321;28;20448;-49
2021/06/25 08:03:21;;;;;;;7.63;6.87;;;21.80;99.90;;;;;;5102463;28;20930;-50
2021/06/25 08:05:47;;;;;;;11.90;7.70;;;21.80;99.90;;;;;;5100792;28;20499;-50
2021/06/25 08:08:14;;;;;;;8.87;7.27;;;21.80;99.90;;;;;;5094983;28;20840;-47
2021/06/25 08:10:43;;;;;;;7.40;6.40;;;21.70;99.90;;;;;;5094724;28;20941;-50
2021/06/25 08:13:10;;;;;;;8.37;6.63;;;21.70;99.90;;;;;;5095428;28;20454;-48
2021/06/25 08:15:37;;;;;;;8.87;7.30;;;21.70;99.90;;;;;;5095135;28;20446;-51
2021/06/25 08:18:04;;;;;;;7.47;6.40;;;22.10;99.90;;;;;;5094921;28;20487;-49
2021/06/25 08:20:31;;;;;;;8.10;5.70;;;23.30;99.90;;;;;;5094621;28;20445;-46
2021/06/25 08:22:58;;;;;;;7.30;6.07;;;24.80;99.90;;;;;;5095170;28;20808;-51
2021/06/25 08:25:25;;;;;;;12.00;6.73;;;26.30;99.90;;;;;;5095099;28;20449;-49
2021/06/25 08:27:55;;;;;;;7.63;6.77;;;27.30;99.90;;;;;;5100434;28;20441;-46
2021/06/25 08:30:24;;;;;;;7.50;6.83;;;27.70;99.90;;;;;;5106085;28;20532;-51
2021/06/25 08:32:52;;;;;;;8.03;7.10;;;28.30;99.90;;;;;;5094673;28;20514;-46
2021/06/25 08:35:19;;;;;;;10.80;7.17;;;28.30;99.60;;;;;;5094685;28;20489;-53
2021/06/25 08:37:45;;;;;;;8.70;6.50;;;28.70;99.60;;;;;;5093883;28;20485;-51
2021/06/25 08:40:13;;;;;;;7.70;6.80;;;29.70;95.00;;;;;;5094301;28;20511;-48
2021/06/25 08:42:40;;;;;;;6.80;6.20;;;30.10;92.20;;;;;;5094806;28;21028;-50
2021/06/25 08:45:11;;;;;;;6.97;5.93;;;30.00;91.60;;;;;;5094843;28;20445;-54
2021/06/25 08:47:41;;;;;;;8.37;7.03;;;29.70;90.60;;;;;;5098641;28;20448;-45
2021/06/25 08:50:10;;;;;;;7.00;6.27;;;29.30;91.40;;;;;;5103677;28;20453;-47
2021/06/25 08:52:37;;;;;;;8.27;7.47;;;28.60;91.00;;;;;;5095933;28;20445;-45
2021/06/25 08:55:05;;;;;;;8.20;7.10;;;28.50;93.10;;;;;;5093063;28;20441;-46
2021/06/25 08:57:34;;;;;;;8.30;7.37;;;28.70;90.90;;;;;;5094152;28;20974;-47
2021/06/25 09:00:00;;;;;;;7.60;6.83;;;28.90;90.20;;;;;;5097049;28;20817;-48
2021/06/25 09:02:35;;;;;;;8.13;6.97;;;29.20;88.80;;;;;;5114307;28;20826;-50
2021/06/25 09:05:02;;;;;;;8.00;6.50;;;29.50;86.10;;;;;;5114397;28;20469;-51
2021/06/25 09:07:42;;;;;;;11.27;7.87;;;30.50;83.50;;;;;;5114453;28;20461;-52
2021/06/25 09:10:10;;;;;;;12.60;7.40;;;31.20;76.70;;;;;;5114505;28;20448;-50
2021/06/25 09:12:37;;;;;;;7.43;6.73;;;31.90;75.70;;;;;;5113948;28;20476;-49
2021/06/25 09:15:08;;;;;;;8.37;6.50;;;31.90;70.70;;;;;;5114891;28;20493;-47
2021/06/25 09:17:53;;;;;;;7.17;6.20;;;31.40;69.80;;;;;;5097588;28;20487;-44
2021/06/25 09:20:30;;;;;;;10.70;8.80;;;30.60;72.50;;;;;;5109549;28;20521;-44
2021/06/25 09:22:57;;;;;;;9.00;6.53;;;29.70;72.40;;;;;;5113924;28;20448;-51
2021/06/25 09:25:24;;;;;;;8.10;7.30;;;29.30;75.30;;;;;;5112155;28;20941;-48
2021/06/25 09:27:55;;;;;;;8.47;6.40;;;28.60;77.00;;;;;;5112776;28;20505;-51
2021/06/25 09:30:25;;;;;;;7.20;6.20;;;27.90;79.60;;;;;;5097818;28;20869;-47
2021/06/25 09:32:54;;;;;;;8.20;7.40;;;27.50;82.50;;;;;;5112445;28;20833;-45
2021/06/25 09:35:22;;;;;;;11.03;8.00;;;27.10;83.10;;;;;;5108708;28;20506;-52
2021/06/25 09:37:51;;;;;;;6.70;6.00;;;26.80;84.00;;;;;;5093726;28;20485;-51
2021/06/25 09:40:18;;;;;;;9.40;8.13;;;27.50;85.50;;;;;;5093956;28;20741;-45
2021/06/25 09:42:46;;;;;;;10.00;6.90;;;28.70;80.30;;;;;;5093891;28;20445;-47
2021/06/25 09:45:15;;;;;;;6.80;5.97;;;30.10;74.30;;;;;;5093733;28;20441;-55
2021/06/25 09:47:44;;;;;;;7.80;5.17;;;30.90;70.50;;;;;;5100602;28;20809;-47
2021/06/25 09:50:14;;;;;;;7.23;6.60;;;32.10;66.30;;;;;;5113735;28;20952;-46
2021/06/25 09:52:50;;;;;;;6.03;5.53;;;32.90;66.40;;;;;;5114337;28;20428;-52
2021/06/25 09:55:18;;;;;;;5.33;4.83;;;33.50;60.00;;;;;;5113970;28;20463;-48
2021/06/25 10:01:24;;;;;;;6.50;5.90;;;32.80;61.00;;;;;;5065219;28;20524;-49
2021/06/25 10:03:52;;;;;;;7.63;5.23;;;31.70;62.30;;;;;;5113727;28;20969;-47
2021/06/25 10:06:21;;;;;;;7.27;6.37;;;30.50;65.40;;;;;;5114039;28;20505;-49
2021/06/25 10:08:49;;;;;;;7.93;7.13;;;29.30;67.30;;;;;;5113696;28;20474;-50
2021/06/25 10:11:18;;;;;;;6.50;5.90;;;28.30;70.10;;;;;;5113964;28;20900;-51
2021/06/25 10:13:46;;;;;;;6.97;6.17;;;27.50;71.70;;;;;;5114125;28;20453;-45
2021/06/25 10:16:13;;;;;;;6.57;5.97;;;26.80;74.70;;;;;;5113553;28;20444;-45
2021/06/25 10:18:41;;;;;;;6.53;5.93;;;26.20;75.80;;;;;;5113788;28;20766;-53
2021/06/25 10:21:10;;;;;;;8.83;5.90;;;25.80;77.80;;;;;;5115091;28;20974;-53
2021/06/25 10:23:39;;;;;;;6.93;6.13;;;25.50;79.90;;;;;;5112532;28;20829;-52
2021/06/25 10:26:10;;;;;;;14.70;7.53;;;25.30;80.70;;;;;;5096949;28;20770;-52
2021/06/25 10:28:39;;;;;;;9.00;6.57;;;25.20;80.80;;;;;;5097313;28;20440;-52
2021/06/25 10:31:09;;;;;;;8.70;7.60;;;25.20;81.90;;;;;;5112743;28;20505;-51
2021/06/25 10:33:36;;;;;;;7.27;5.93;;;25.50;85.90;;;;;;5122165;28;20440;-45
2021/06/25 10:36:05;;;;;;;9.67;8.57;;;26.30;82.10;;;;;;5120579;28;20471;-48
2021/06/25 10:38:33;;;;;;;7.43;6.70;;;27.30;79.20;;;;;;5119864;28;20566;-44
2021/06/25 10:41:03;;;;;;;7.67;6.87;;;28.10;76.30;;;;;;5118960;28;20448;-48
2021/06/25 10:43:44;;;;;;;6.90;6.10;;;28.70;75.80;;;;;;5118213;28;20486;-50
2021/06/25 10:46:34;;;;;;;7.13;6.40;;;28.90;73.10;;;;;;5117389;28;20456;-51
2021/06/25 10:49:05;;;;;;;10.20;6.60;;;28.40;73.60;;;;;;5117672;28;20456;-49
2021/06/25 10:51:33;;;;;;;8.63;6.40;;;27.80;75.30;;;;;;5117619;28;20444;-47
2021/06/25 10:54:17;;;;;;;7.30;6.10;;;27.30;76.70;;;;;;5116929;28;20509;-46
2021/06/25 10:57:06;;;;;;;11.37;6.00;;;26.80;77.90;;;;;;5117315;28;20472;-53
2021/06/25 10:59:42;;;;;;;8.63;6.03;;;26.40;80.20;;;;;;5117549;28;20448;-46
2021/06/25 11:02:10;;;;;;;7.17;5.60;;;26.30;81.40;;;;;;5117246;28;20486;-47
2021/06/25 11:04:39;;;;;;;6.23;5.27;;;26.50;80.50;;;;;;5117156;28;20456;-47
2021/06/25 11:07:08;;;;;;;7.77;6.43;;;27.00;80.00;;;;;;5117009;28;20437;-46
2021/06/25 11:09:56;;;;;;;5.63;4.70;;;27.20;78.10;;;;;;5117574;28;20436;-48
2021/06/25 11:12:26;;;;;;;6.50;5.80;;;27.50;77.40;;;;;;5117812;28;20499;-48
2021/06/25 11:14:54;;;;;;;6.80;6.13;;;27.60;76.30;;;;;;5116657;28;20455;-50
2021/06/25 11:17:46;;;;;;;14.83;7.57;;;27.50;75.00;;;;;;5117212;28;20479;-47
2021/06/25 11:20:38;;;;;;;7.27;5.33;;;27.20;73.90;;;;;;5115873;28;20455;-50
2021/06/25 11:23:10;;;;;;;6.07;5.47;;;26.90;75.30;;;;;;5097115;28;20460;-51
2021/06/25 11:25:46;;;;;;;5.80;5.13;;;26.60;78.20;;;;;;5099716;28;20437;-44
2021/06/25 11:28:22;;;;;;;5.70;5.20;;;26.40;76.70;;;;;;5099150;28;20429;-46
2021/06/25 11:31:07;;;;;;;5.60;4.80;;;26.00;77.80;;;;;;5097922;28;20477;-49
2021/06/25 11:33:39;;;;;;;6.83;4.67;;;25.60;79.10;;;;;;5099041;28;20450;-44
2021/06/25 11:36:23;;;;;;;6.13;4.60;;;25.20;77.80;;;;;;5112043;28;20467;-48
2021/06/25 11:38:58;;;;;;;6.13;4.77;;;24.90;78.20;;;;;;5118478;28;20480;-46
2021/06/25 11:41:27;;;;;;;4.47;4.07;;;24.80;79.60;;;;;;5119210;28;20937;-49
2021/06/25 11:43:55;;;;;;;5.50;4.83;;;24.80;78.40;;;;;;5118614;28;20436;-46
2021/06/25 11:46:22;;;;;;;5.10;4.70;;;24.80;80.20;;;;;;5119150;28;20501;-51
2021/06/25 11:48:50;;;;;;;6.80;4.43;;;25.00;79.20;;;;;;5111720;28;20893;-48
2021/06/25 11:51:21;;;;;;;5.63;5.13;;;25.40;81.90;;;;;;5117556;28;21005;-48
2021/06/25 11:53:48;;;;;;;5.77;4.60;;;25.60;78.20;;;;;;5117012;28;20429;-48
2021/06/25 11:56:19;;;;;;;4.77;4.27;;;25.80;78.10;;;;;;5116488;28;20908;-49
2021/06/25 11:59:01;;;;;;;4.50;4.10;;;26.20;78.60;;;;;;5116556;28;20476;-50
2021/06/25 12:01:29;;;;;;;4.57;4.17;;;26.30;77.30;;;;;;5096109;28;20441;-50
2021/06/25 12:03:57;;;;;;;7.97;4.70;;;26.40;77.00;;;;;;5095981;28;20511;-50
2021/06/25 12:06:24;;;;;;;5.13;4.00;;;26.40;75.60;;;;;;5096385;28;20476;-45
2021/06/25 12:08:56;;;;;;;7.30;4.40;;;26.60;75.00;;;;;;5095490;28;20446;-48
2021/06/25 12:11:24;;;;;;;6.43;5.23;;;26.80;75.50;;;;;;5095475;28;20886;-49
2021/06/25 12:14:00;;;;;;;5.63;5.13;;;26.80;74.70;;;;;;5095473;28;20523;-48
2021/06/25 12:16:28;;;;;;;6.20;4.40;;;26.80;75.20;;;;;;5095698;28;20452;-49
2021/06/25 12:18:54;;;;;;;4.77;4.00;;;26.70;74.90;;;;;;5095230;28;20484;-46
2021/06/25 12:21:22;;;;;;;5.07;4.10;;;26.60;73.70;;;;;;5095530;28;20485;-50
2021/06/25 12:23:57;;;;;;;5.07;4.67;;;26.40;74.30;;;;;;5095350;28;20472;-45
2021/06/25 12:26:27;;;;;;;4.37;3.97;;;26.40;74.60;;;;;;5114298;28;20477;-50
2021/06/25 12:28:56;;;;;;;5.40;4.40;;;26.50;73.80;;;;;;5115850;28;20505;-49
2021/06/25 12:31:27;;;;;;;5.17;4.50;;;26.60;73.20;;;;;;5115753;28;20460;-49
2021/06/25 12:34:05;;;;;;;4.87;4.47;;;26.70;72.80;;;;;;5115436;28;20456;-53
2021/06/25 12:36:36;;;;;;;4.70;4.30;;;26.90;73.00;;;;;;5115751;28;20424;-53
2021/06/25 12:39:06;;;;;;;5.83;4.20;;;27.10;72.60;;;;;;5115375;28;20480;-49
2021/06/25 12:41:42;;;;;;;5.00;4.30;;;27.10;70.80;;;;;;5115655;28;20816;-46
2021/06/25 12:44:10;;;;;;;4.50;3.90;;;27.10;70.30;;;;;;5104246;28;20457;-50
2021/06/25 12:46:39;;;;;;;6.43;4.67;;;27.00;70.50;;;;;;5135314;28;20470;-47
2021/06/25 12:49:07;;;;;;;4.70;3.60;;;26.90;70.20;;;;;;5106399;28;20506;-52
2021/06/25 12:51:39;;;;;;;10.30;6.20;;;26.80;70.40;;;;;;5118240;28;20440;-52
2021/06/25 12:54:08;;;;;;;3.97;3.63;;;26.70;71.20;;;;;;5105003;28;20446;-48
2021/06/25 12:56:38;;;;;;;5.77;4.77;;;26.80;72.10;;;;;;5130798;28;20452;-51
2021/06/25 12:59:12;;;;;;;5.80;4.47;;;26.80;71.60;;;;;;5118588;28;20474;-48
2021/06/25 13:01:41;;;;;;;8.00;5.63;;;27.10;70.80;;;;;;5127124;28;20444;-46